sensor_id;sensor_type;location;lat;lon;timestamp;temperature;humidity
70271;SHT31;57680;54.292;18.598;2024-01-25T00:02:07;5.46;96.53
70271;SHT31;57680;54.292;18.598;2024-01-25T00:04:32;5.49;96.64
70271;SHT31;57680;54.292;18.598;2024-01-25T00:06:58;5.43;96.88
70271;SHT31;57680;54.292;18.598;2024-01-25T00:09:23;5.41;97.00
70271;SHT31;57680;54.292;18.598;2024-01-25T00:11:48;5.45;96.76
70271;SHT31;57680;54.292;18.598;2024-01-25T00:14:13;5.48;96.35
70271;SHT31;57680;54.292;18.598;2024-01-25T00:16:42;5.46;96.17
70271;SHT31;57680;54.292;18.598;2024-01-25T00:19:07;5.51;96.17
70271;SHT31;57680;54.292;18.598;2024-01-25T00:21:33;5.48;95.95
70271;SHT31;57680;54.292;18.598;2024-01-25T00:23:58;5.46;96.11
70271;SHT31;57680;54.292;18.598;2024-01-25T00:26:24;5.43;96.29
70271;SHT31;57680;54.292;18.598;2024-01-25T00:28:49;5.43;96.23
70271;SHT31;57680;54.292;18.598;2024-01-25T00:31:14;5.46;95.97
70271;SHT31;57680;54.292;18.598;2024-01-25T00:33:39;5.42;96.13
70271;SHT31;57680;54.292;18.598;2024-01-25T00:36:05;5.42;95.94
70271;SHT31;57680;54.292;18.598;2024-01-25T00:38:31;5.42;96.17
70271;SHT31;57680;54.292;18.598;2024-01-25T00:40:56;5.42;96.14
70271;SHT31;57680;54.292;18.598;2024-01-25T00:43:22;5.43;96.02
70271;SHT31;57680;54.292;18.598;2024-01-25T00:45:47;5.48;95.92
70271;SHT31;57680;54.292;18.598;2024-01-25T00:48:13;5.49;95.54
70271;SHT31;57680;54.292;18.598;2024-01-25T00:50:38;5.48;95.55
70271;SHT31;57680;54.292;18.598;2024-01-25T00:53:04;5.41;95.87
70271;SHT31;57680;54.292;18.598;2024-01-25T00:55:30;5.43;95.61
70271;SHT31;57680;54.292;18.598;2024-01-25T00:57:55;5.41;96.06
70271;SHT31;57680;54.292;18.598;2024-01-25T01:00:21;5.41;95.85
70271;SHT31;57680;54.292;18.598;2024-01-25T01:02:47;5.28;96.55
70271;SHT31;57680;54.292;18.598;2024-01-25T01:05:12;5.34;96.53
70271;SHT31;57680;54.292;18.598;2024-01-25T01:07:39;5.27;96.69
70271;SHT31;57680;54.292;18.598;2024-01-25T01:10:04;5.27;96.76
70271;SHT31;57680;54.292;18.598;2024-01-25T01:12:30;5.27;96.85
70271;SHT31;57680;54.292;18.598;2024-01-25T01:14:55;5.36;96.21
70271;SHT31;57680;54.292;18.598;2024-01-25T01:17:21;5.34;96.68
70271;SHT31;57680;54.292;18.598;2024-01-25T01:19:46;5.27;96.89
70271;SHT31;57680;54.292;18.598;2024-01-25T01:22:11;5.25;96.88
70271;SHT31;57680;54.292;18.598;2024-01-25T01:24:37;5.31;96.76
70271;SHT31;57680;54.292;18.598;2024-01-25T01:27:02;5.28;96.77
70271;SHT31;57680;54.292;18.598;2024-01-25T01:29:28;5.25;96.93
70271;SHT31;57680;54.292;18.598;2024-01-25T01:31:56;5.31;96.76
70271;SHT31;57680;54.292;18.598;2024-01-25T01:34:22;5.31;96.66
70271;SHT31;57680;54.292;18.598;2024-01-25T01:36:47;5.30;96.38
70271;SHT31;57680;54.292;18.598;2024-01-25T01:39:12;5.30;96.46
70271;SHT31;57680;54.292;18.598;2024-01-25T01:41:38;5.35;95.52
70271;SHT31;57680;54.292;18.598;2024-01-25T01:44:03;5.36;95.42
70271;SHT31;57680;54.292;18.598;2024-01-25T01:46:36;5.34;95.37
70271;SHT31;57680;54.292;18.598;2024-01-25T01:49:03;5.25;95.60
70271;SHT31;57680;54.292;18.598;2024-01-25T01:51:32;5.25;95.94
70271;SHT31;57680;54.292;18.598;2024-01-25T01:53:59;5.27;95.39
70271;SHT31;57680;54.292;18.598;2024-01-25T01:56:27;5.25;95.78
70271;SHT31;57680;54.292;18.598;2024-01-25T01:58:53;5.24;95.42
70271;SHT31;57680;54.292;18.598;2024-01-25T02:01:20;5.17;95.60
70271;SHT31;57680;54.292;18.598;2024-01-25T02:03:45;5.10;96.09
70271;SHT31;57680;54.292;18.598;2024-01-25T02:06:11;5.12;96.18
70271;SHT31;57680;54.292;18.598;2024-01-25T02:08:36;5.07;96.28
70271;SHT31;57680;54.292;18.598;2024-01-25T02:11:02;5.07;95.78
70271;SHT31;57680;54.292;18.598;2024-01-25T02:13:27;5.05;96.26
70271;SHT31;57680;54.292;18.598;2024-01-25T02:15:53;5.00;96.60
70271;SHT31;57680;54.292;18.598;2024-01-25T02:18:18;5.10;96.19
70271;SHT31;57680;54.292;18.598;2024-01-25T02:20:43;5.10;95.83
70271;SHT31;57680;54.292;18.598;2024-01-25T02:23:09;5.15;95.18
70271;SHT31;57680;54.292;18.598;2024-01-25T02:25:34;5.07;95.54
70271;SHT31;57680;54.292;18.598;2024-01-25T02:27:59;5.11;95.46
70271;SHT31;57680;54.292;18.598;2024-01-25T02:30:25;5.04;95.42
70271;SHT31;57680;54.292;18.598;2024-01-25T02:32:50;5.00;95.69
70271;SHT31;57680;54.292;18.598;2024-01-25T02:35:15;5.00;95.52
70271;SHT31;57680;54.292;18.598;2024-01-25T02:37:41;5.03;95.41
70271;SHT31;57680;54.292;18.598;2024-01-25T02:40:06;5.03;95.41
70271;SHT31;57680;54.292;18.598;2024-01-25T02:42:32;4.97;95.89
70271;SHT31;57680;54.292;18.598;2024-01-25T02:44:57;5.01;95.51
70271;SHT31;57680;54.292;18.598;2024-01-25T02:47:22;5.00;95.54
70271;SHT31;57680;54.292;18.598;2024-01-25T02:49:48;5.01;95.24
70271;SHT31;57680;54.292;18.598;2024-01-25T02:52:13;5.00;95.45
70271;SHT31;57680;54.292;18.598;2024-01-25T02:54:38;5.04;95.67
70271;SHT31;57680;54.292;18.598;2024-01-25T02:57:04;5.03;95.74
70271;SHT31;57680;54.292;18.598;2024-01-25T02:59:29;4.97;95.79
70271;SHT31;57680;54.292;18.598;2024-01-25T03:01:55;5.07;95.62
70271;SHT31;57680;54.292;18.598;2024-01-25T03:04:20;4.98;95.66
70271;SHT31;57680;54.292;18.598;2024-01-25T03:06:45;4.95;95.84
70271;SHT31;57680;54.292;18.598;2024-01-25T03:09:11;5.03;95.29
70271;SHT31;57680;54.292;18.598;2024-01-25T03:11:36;5.04;95.32
70271;SHT31;57680;54.292;18.598;2024-01-25T03:14:01;5.03;95.26
70271;SHT31;57680;54.292;18.598;2024-01-25T03:16:27;5.08;95.10
70271;SHT31;57680;54.292;18.598;2024-01-25T03:18:52;5.11;95.13
70271;SHT31;57680;54.292;18.598;2024-01-25T03:21:17;5.17;95.11
70271;SHT31;57680;54.292;18.598;2024-01-25T03:23:43;5.07;95.68
70271;SHT31;57680;54.292;18.598;2024-01-25T03:26:08;5.10;95.58
70271;SHT31;57680;54.292;18.598;2024-01-25T03:28:36;5.05;95.55
70271;SHT31;57680;54.292;18.598;2024-01-25T03:31:02;5.07;95.65
70271;SHT31;57680;54.292;18.598;2024-01-25T03:33:27;5.08;95.47
70271;SHT31;57680;54.292;18.598;2024-01-25T03:35:52;5.01;95.79
70271;SHT31;57680;54.292;18.598;2024-01-25T03:38:18;5.07;95.11
70271;SHT31;57680;54.292;18.598;2024-01-25T03:40:43;5.11;95.21
70271;SHT31;57680;54.292;18.598;2024-01-25T03:43:09;5.08;95.59
70271;SHT31;57680;54.292;18.598;2024-01-25T03:45:35;5.08;95.89
70271;SHT31;57680;54.292;18.598;2024-01-25T03:48:00;5.01;95.81
70271;SHT31;57680;54.292;18.598;2024-01-25T03:50:26;5.04;96.03
70271;SHT31;57680;54.292;18.598;2024-01-25T03:52:51;5.04;96.16
70271;SHT31;57680;54.292;18.598;2024-01-25T03:55:17;5.12;95.83
70271;SHT31;57680;54.292;18.598;2024-01-25T03:57:42;5.01;96.34
70271;SHT31;57680;54.292;18.598;2024-01-25T04:00:08;5.04;96.08
70271;SHT31;57680;54.292;18.598;2024-01-25T04:02:33;4.97;96.55
70271;SHT31;57680;54.292;18.598;2024-01-25T04:04:59;4.94;97.23
70271;SHT31;57680;54.292;18.598;2024-01-25T04:07:24;4.91;97.08
70271;SHT31;57680;54.292;18.598;2024-01-25T04:09:49;4.91;96.89
70271;SHT31;57680;54.292;18.598;2024-01-25T04:12:15;4.87;96.96
70271;SHT31;57680;54.292;18.598;2024-01-25T04:14:40;4.88;96.64
70271;SHT31;57680;54.292;18.598;2024-01-25T04:17:05;5.01;96.28
70271;SHT31;57680;54.292;18.598;2024-01-25T04:19:31;4.98;96.36
70271;SHT31;57680;54.292;18.598;2024-01-25T04:21:56;4.93;96.76
70271;SHT31;57680;54.292;18.598;2024-01-25T04:24:21;5.01;96.93
70271;SHT31;57680;54.292;18.598;2024-01-25T04:26:46;4.98;96.90
70271;SHT31;57680;54.292;18.598;2024-01-25T04:29:12;4.98;97.28
70271;SHT31;57680;54.292;18.598;2024-01-25T04:31:43;5.01;97.18
70271;SHT31;57680;54.292;18.598;2024-01-25T04:34:08;4.95;97.37
70271;SHT31;57680;54.292;18.598;2024-01-25T04:36:34;5.01;97.19
70271;SHT31;57680;54.292;18.598;2024-01-25T04:38:59;4.97;97.17
70271;SHT31;57680;54.292;18.598;2024-01-25T04:41:24;5.01;97.06
70271;SHT31;57680;54.292;18.598;2024-01-25T04:43:50;5.03;96.98
70271;SHT31;57680;54.292;18.598;2024-01-25T04:46:16;4.95;97.16
70271;SHT31;57680;54.292;18.598;2024-01-25T04:48:41;4.94;97.31
70271;SHT31;57680;54.292;18.598;2024-01-25T04:51:06;4.91;97.22
70271;SHT31;57680;54.292;18.598;2024-01-25T04:53:32;4.95;97.02
70271;SHT31;57680;54.292;18.598;2024-01-25T04:55:57;5.00;96.50
70271;SHT31;57680;54.292;18.598;2024-01-25T04:58:22;5.04;96.11
70271;SHT31;57680;54.292;18.598;2024-01-25T05:00:48;4.93;96.34
70271;SHT31;57680;54.292;18.598;2024-01-25T05:03:13;4.93;96.10
70271;SHT31;57680;54.292;18.598;2024-01-25T05:05:38;4.90;96.03
70271;SHT31;57680;54.292;18.598;2024-01-25T05:08:04;4.94;95.53
70271;SHT31;57680;54.292;18.598;2024-01-25T05:10:29;4.87;95.98
70271;SHT31;57680;54.292;18.598;2024-01-25T05:12:54;4.83;96.27
70271;SHT31;57680;54.292;18.598;2024-01-25T05:15:20;4.84;96.49
70271;SHT31;57680;54.292;18.598;2024-01-25T05:17:45;4.85;96.70
70271;SHT31;57680;54.292;18.598;2024-01-25T05:20:10;4.81;96.59
70271;SHT31;57680;54.292;18.598;2024-01-25T05:22:36;4.80;96.78
70271;SHT31;57680;54.292;18.598;2024-01-25T05:25:01;4.76;97.05
70271;SHT31;57680;54.292;18.598;2024-01-25T05:27:26;4.80;97.28
70271;SHT31;57680;54.292;18.598;2024-01-25T05:29:52;4.83;97.27
70271;SHT31;57680;54.292;18.598;2024-01-25T05:32:17;4.81;97.17
70271;SHT31;57680;54.292;18.598;2024-01-25T05:34:42;4.81;97.07
70271;SHT31;57680;54.292;18.598;2024-01-25T05:37:08;4.88;96.88
70271;SHT31;57680;54.292;18.598;2024-01-25T05:39:33;4.81;97.09
70271;SHT31;57680;54.292;18.598;2024-01-25T05:41:58;4.79;97.24
70271;SHT31;57680;54.292;18.598;2024-01-25T05:44:24;4.81;97.40
70271;SHT31;57680;54.292;18.598;2024-01-25T05:46:49;4.85;97.35
70271;SHT31;57680;54.292;18.598;2024-01-25T05:49:14;4.88;97.24
70271;SHT31;57680;54.292;18.598;2024-01-25T05:51:40;4.94;97.03
70271;SHT31;57680;54.292;18.598;2024-01-25T05:54:05;5.00;97.01
70271;SHT31;57680;54.292;18.598;2024-01-25T05:56:30;5.01;96.86
70271;SHT31;57680;54.292;18.598;2024-01-25T05:58:56;5.00;97.24
70271;SHT31;57680;54.292;18.598;2024-01-25T06:01:21;5.01;97.39
70271;SHT31;57680;54.292;18.598;2024-01-25T06:03:46;5.04;97.23
70271;SHT31;57680;54.292;18.598;2024-01-25T06:06:11;5.07;97.16
70271;SHT31;57680;54.292;18.598;2024-01-25T06:08:37;5.07;97.34
70271;SHT31;57680;54.292;18.598;2024-01-25T06:11:02;5.07;97.39
70271;SHT31;57680;54.292;18.598;2024-01-25T06:13:28;5.05;97.62
70271;SHT31;57680;54.292;18.598;2024-01-25T06:15:53;5.17;96.86
70271;SHT31;57680;54.292;18.598;2024-01-25T06:18:18;5.17;96.80
70271;SHT31;57680;54.292;18.598;2024-01-25T06:20:44;5.20;96.92
70271;SHT31;57680;54.292;18.598;2024-01-25T06:23:09;5.20;96.90
70271;SHT31;57680;54.292;18.598;2024-01-25T06:25:34;5.20;96.82
70271;SHT31;57680;54.292;18.598;2024-01-25T06:28:00;5.24;96.87
70271;SHT31;57680;54.292;18.598;2024-01-25T06:30:25;5.22;96.75
70271;SHT31;57680;54.292;18.598;2024-01-25T06:32:50;5.17;96.95
70271;SHT31;57680;54.292;18.598;2024-01-25T06:35:16;5.17;96.98
70271;SHT31;57680;54.292;18.598;2024-01-25T06:37:41;5.14;97.03
70271;SHT31;57680;54.292;18.598;2024-01-25T06:40:07;5.08;97.33
70271;SHT31;57680;54.292;18.598;2024-01-25T06:42:32;5.17;96.79
70271;SHT31;57680;54.292;18.598;2024-01-25T06:44:57;5.12;97.03
70271;SHT31;57680;54.292;18.598;2024-01-25T06:47:23;5.14;97.15
70271;SHT31;57680;54.292;18.598;2024-01-25T06:49:48;5.10;96.92
70271;SHT31;57680;54.292;18.598;2024-01-25T06:52:13;5.17;96.97
70271;SHT31;57680;54.292;18.598;2024-01-25T06:54:38;5.12;97.17
70271;SHT31;57680;54.292;18.598;2024-01-25T06:57:04;5.14;97.32
70271;SHT31;57680;54.292;18.598;2024-01-25T06:59:29;5.08;97.87
70271;SHT31;57680;54.292;18.598;2024-01-25T07:01:54;5.07;97.92
70271;SHT31;57680;54.292;18.598;2024-01-25T07:04:20;5.03;98.32
70271;SHT31;57680;54.292;18.598;2024-01-25T07:06:45;4.98;98.71
70271;SHT31;57680;54.292;18.598;2024-01-25T07:09:10;4.98;98.91
70271;SHT31;57680;54.292;18.598;2024-01-25T07:11:36;4.93;99.03
70271;SHT31;57680;54.292;18.598;2024-01-25T07:14:01;4.90;99.38
70271;SHT31;57680;54.292;18.598;2024-01-25T07:16:26;4.90;99.59
70271;SHT31;57680;54.292;18.598;2024-01-25T07:18:51;4.85;99.74
70271;SHT31;57680;54.292;18.598;2024-01-25T07:21:17;4.88;99.74
70271;SHT31;57680;54.292;18.598;2024-01-25T07:23:42;4.87;99.96
70271;SHT31;57680;54.292;18.598;2024-01-25T07:26:07;4.91;99.87
70271;SHT31;57680;54.292;18.598;2024-01-25T07:28:32;4.87;99.97
70271;SHT31;57680;54.292;18.598;2024-01-25T07:30:58;4.85;99.91
70271;SHT31;57680;54.292;18.598;2024-01-25T07:33:23;4.81;99.99
70271;SHT31;57680;54.292;18.598;2024-01-25T07:35:49;4.72;99.56
70271;SHT31;57680;54.292;18.598;2024-01-25T07:38:15;4.42;99.21
70271;SHT31;57680;54.292;18.598;2024-01-25T07:40:40;4.15;99.28
70271;SHT31;57680;54.292;18.598;2024-01-25T07:43:05;3.95;99.50
70271;SHT31;57680;54.292;18.598;2024-01-25T07:45:31;3.77;99.99
70271;SHT31;57680;54.292;18.598;2024-01-25T07:47:57;3.67;99.99
70271;SHT31;57680;54.292;18.598;2024-01-25T07:50:22;3.59;99.99
70271;SHT31;57680;54.292;18.598;2024-01-25T07:52:47;3.50;99.99
70271;SHT31;57680;54.292;18.598;2024-01-25T07:55:13;3.43;99.99
70271;SHT31;57680;54.292;18.598;2024-01-25T07:57:38;3.39;99.99
70271;SHT31;57680;54.292;18.598;2024-01-25T08:00:04;3.34;99.99
70271;SHT31;57680;54.292;18.598;2024-01-25T08:02:29;3.34;99.99
70271;SHT31;57680;54.292;18.598;2024-01-25T08:04:54;3.27;99.99
70271;SHT31;57680;54.292;18.598;2024-01-25T08:07:20;3.27;99.99
70271;SHT31;57680;54.292;18.598;2024-01-25T08:09:45;3.20;99.99
70271;SHT31;57680;54.292;18.598;2024-01-25T08:12:10;3.18;99.99
70271;SHT31;57680;54.292;18.598;2024-01-25T08:14:36;3.18;99.99
70271;SHT31;57680;54.292;18.598;2024-01-25T08:17:01;3.13;99.99
70271;SHT31;57680;54.292;18.598;2024-01-25T08:19:26;3.15;99.99
70271;SHT31;57680;54.292;18.598;2024-01-25T08:21:52;3.08;99.99
70271;SHT31;57680;54.292;18.598;2024-01-25T08:24:17;2.99;99.99
70271;SHT31;57680;54.292;18.598;2024-01-25T08:26:43;2.91;99.99
70271;SHT31;57680;54.292;18.598;2024-01-25T08:29:08;2.91;99.99
70271;SHT31;57680;54.292;18.598;2024-01-25T08:31:34;2.87;99.99
70271;SHT31;57680;54.292;18.598;2024-01-25T08:34:00;2.80;99.99
70271;SHT31;57680;54.292;18.598;2024-01-25T08:36:25;2.75;99.99
70271;SHT31;57680;54.292;18.598;2024-01-25T08:38:50;2.61;99.99
70271;SHT31;57680;54.292;18.598;2024-01-25T08:41:15;2.47;99.99
70271;SHT31;57680;54.292;18.598;2024-01-25T08:43:41;2.44;99.99
70271;SHT31;57680;54.292;18.598;2024-01-25T08:46:07;2.41;99.99
70271;SHT31;57680;54.292;18.598;2024-01-25T08:48:32;2.40;99.99
70271;SHT31;57680;54.292;18.598;2024-01-25T08:50:57;2.38;99.99
70271;SHT31;57680;54.292;18.598;2024-01-25T08:53:22;2.34;99.99
70271;SHT31;57680;54.292;18.598;2024-01-25T08:55:48;2.30;99.99
70271;SHT31;57680;54.292;18.598;2024-01-25T08:58:13;2.30;99.99
70271;SHT31;57680;54.292;18.598;2024-01-25T09:00:39;2.29;99.99
70271;SHT31;57680;54.292;18.598;2024-01-25T09:03:04;2.24;99.99
70271;SHT31;57680;54.292;18.598;2024-01-25T09:05:29;2.29;99.99
70271;SHT31;57680;54.292;18.598;2024-01-25T09:07:55;2.34;99.99
70271;SHT31;57680;54.292;18.598;2024-01-25T09:10:20;2.33;99.99
70271;SHT31;57680;54.292;18.598;2024-01-25T09:12:45;2.33;99.99
70271;SHT31;57680;54.292;18.598;2024-01-25T09:15:10;2.34;99.99
70271;SHT31;57680;54.292;18.598;2024-01-25T09:17:36;2.31;99.99
70271;SHT31;57680;54.292;18.598;2024-01-25T09:20:02;2.33;99.99
70271;SHT31;57680;54.292;18.598;2024-01-25T09:22:27;2.23;99.99
70271;SHT31;57680;54.292;18.598;2024-01-25T09:24:52;2.29;99.99
70271;SHT31;57680;54.292;18.598;2024-01-25T09:27:18;2.29;99.99
70271;SHT31;57680;54.292;18.598;2024-01-25T09:29:43;2.30;99.99
70271;SHT31;57680;54.292;18.598;2024-01-25T09:32:09;2.24;99.99
70271;SHT31;57680;54.292;18.598;2024-01-25T09:34:36;2.30;99.99
70271;SHT31;57680;54.292;18.598;2024-01-25T09:37:01;2.38;99.99
70271;SHT31;57680;54.292;18.598;2024-01-25T09:39:27;2.38;99.99
70271;SHT31;57680;54.292;18.598;2024-01-25T09:41:52;2.37;99.99
70271;SHT31;57680;54.292;18.598;2024-01-25T09:44:18;2.40;99.99
70271;SHT31;57680;54.292;18.598;2024-01-25T09:46:44;2.34;99.99
70271;SHT31;57680;54.292;18.598;2024-01-25T09:49:10;2.57;99.99
70271;SHT31;57680;54.292;18.598;2024-01-25T09:51:40;2.71;99.99
70271;SHT31;57680;54.292;18.598;2024-01-25T09:54:06;2.81;99.99
70271;SHT31;57680;54.292;18.598;2024-01-25T09:56:32;2.88;99.99
70271;SHT31;57680;54.292;18.598;2024-01-25T09:58:58;2.93;99.99
70271;SHT31;57680;54.292;18.598;2024-01-25T10:01:23;2.87;99.99
70271;SHT31;57680;54.292;18.598;2024-01-25T10:03:49;2.98;99.99
70271;SHT31;57680;54.292;18.598;2024-01-25T10:06:15;3.05;99.99
70271;SHT31;57680;54.292;18.598;2024-01-25T10:08:41;2.91;99.99
70271;SHT31;57680;54.292;18.598;2024-01-25T10:11:07;2.75;99.99
70271;SHT31;57680;54.292;18.598;2024-01-25T10:13:32;3.03;99.99
70271;SHT31;57680;54.292;18.598;2024-01-25T10:15:58;3.05;99.99
70271;SHT31;57680;54.292;18.598;2024-01-25T10:18:24;3.09;99.99
70271;SHT31;57680;54.292;18.598;2024-01-25T10:20:50;3.16;99.99
70271;SHT31;57680;54.292;18.598;2024-01-25T10:23:15;3.20;99.99
70271;SHT31;57680;54.292;18.598;2024-01-25T10:25:40;3.33;99.99
70271;SHT31;57680;54.292;18.598;2024-01-25T10:28:06;3.36;99.99
70271;SHT31;57680;54.292;18.598;2024-01-25T10:30:33;3.26;99.09
70271;SHT31;57680;54.292;18.598;2024-01-25T10:33:00;3.29;99.77
70271;SHT31;57680;54.292;18.598;2024-01-25T10:35:26;3.19;99.99
70271;SHT31;57680;54.292;18.598;2024-01-25T10:37:52;3.29;99.99
70271;SHT31;57680;54.292;18.598;2024-01-25T10:40:21;3.36;98.70
70271;SHT31;57680;54.292;18.598;2024-01-25T10:42:48;3.26;99.18
70271;SHT31;57680;54.292;18.598;2024-01-25T10:45:13;3.13;99.26
70271;SHT31;57680;54.292;18.598;2024-01-25T10:47:39;3.01;99.99
70271;SHT31;57680;54.292;18.598;2024-01-25T10:50:06;3.18;99.39
70271;SHT31;57680;54.292;18.598;2024-01-25T10:52:32;3.40;99.99
70271;SHT31;57680;54.292;18.598;2024-01-25T10:54:57;3.43;98.90
70271;SHT31;57680;54.292;18.598;2024-01-25T10:57:23;3.12;99.18
70271;SHT31;57680;54.292;18.598;2024-01-25T10:59:49;3.24;99.84
70271;SHT31;57680;54.292;18.598;2024-01-25T11:02:18;3.27;99.71
70271;SHT31;57680;54.292;18.598;2024-01-25T11:04:52;3.39;99.99
70271;SHT31;57680;54.292;18.598;2024-01-25T11:07:18;3.27;99.99
70271;SHT31;57680;54.292;18.598;2024-01-25T11:09:44;3.18;99.72
70271;SHT31;57680;54.292;18.598;2024-01-25T11:12:13;3.39;99.52
70271;SHT31;57680;54.292;18.598;2024-01-25T11:14:39;3.40;99.56
70271;SHT31;57680;54.292;18.598;2024-01-25T11:17:21;3.26;99.99
70271;SHT31;57680;54.292;18.598;2024-01-25T11:19:48;3.26;99.87
70271;SHT31;57680;54.292;18.598;2024-01-25T11:22:13;3.26;99.96
70271;SHT31;57680;54.292;18.598;2024-01-25T11:24:39;3.15;99.38
70271;SHT31;57680;54.292;18.598;2024-01-25T11:27:05;3.13;99.73
70271;SHT31;57680;54.292;18.598;2024-01-25T11:29:30;3.18;99.99
70271;SHT31;57680;54.292;18.598;2024-01-25T11:31:56;3.13;99.99
70271;SHT31;57680;54.292;18.598;2024-01-25T11:34:22;3.05;99.99
70271;SHT31;57680;54.292;18.598;2024-01-25T11:36:48;3.12;99.99
70271;SHT31;57680;54.292;18.598;2024-01-25T11:39:14;3.26;99.99
70271;SHT31;57680;54.292;18.598;2024-01-25T11:41:41;3.32;99.99
70271;SHT31;57680;54.292;18.598;2024-01-25T11:44:07;3.24;99.99
70271;SHT31;57680;54.292;18.598;2024-01-25T11:46:34;3.18;99.99
70271;SHT31;57680;54.292;18.598;2024-01-25T11:49:00;2.87;99.48
70271;SHT31;57680;54.292;18.598;2024-01-25T11:51:25;2.84;99.99
70271;SHT31;57680;54.292;18.598;2024-01-25T11:53:51;2.87;99.68
70271;SHT31;57680;54.292;18.598;2024-01-25T11:56:21;2.87;99.99
70271;SHT31;57680;54.292;18.598;2024-01-25T11:58:48;2.84;99.99
70271;SHT31;57680;54.292;18.598;2024-01-25T12:01:14;2.91;99.99
70271;SHT31;57680;54.292;18.598;2024-01-25T12:03:40;2.95;99.99
70271;SHT31;57680;54.292;18.598;2024-01-25T12:06:06;2.98;99.99
70271;SHT31;57680;54.292;18.598;2024-01-25T12:08:32;3.08;99.99
70271;SHT31;57680;54.292;18.598;2024-01-25T12:11:10;3.03;99.99
70271;SHT31;57680;54.292;18.598;2024-01-25T12:13:39;2.98;99.99
70271;SHT31;57680;54.292;18.598;2024-01-25T12:16:07;3.08;99.99
70271;SHT31;57680;54.292;18.598;2024-01-25T12:18:33;2.92;99.99
70271;SHT31;57680;54.292;18.598;2024-01-25T12:20:59;2.92;99.87
70271;SHT31;57680;54.292;18.598;2024-01-25T12:23:38;2.88;99.99
70271;SHT31;57680;54.292;18.598;2024-01-25T12:26:06;2.88;99.99
70271;SHT31;57680;54.292;18.598;2024-01-25T12:28:31;2.93;99.99
70271;SHT31;57680;54.292;18.598;2024-01-25T12:30:58;2.95;99.90
70271;SHT31;57680;54.292;18.598;2024-01-25T12:33:23;2.98;99.71
70271;SHT31;57680;54.292;18.598;2024-01-25T12:35:49;2.89;98.73
70271;SHT31;57680;54.292;18.598;2024-01-25T12:38:14;2.99;96.24
70271;SHT31;57680;54.292;18.598;2024-01-25T12:40:41;3.15;90.85
70271;SHT31;57680;54.292;18.598;2024-01-25T12:43:07;3.29;90.59
70271;SHT31;57680;54.292;18.598;2024-01-25T12:45:32;3.37;90.61
70271;SHT31;57680;54.292;18.598;2024-01-25T12:47:57;3.42;89.83
70271;SHT31;57680;54.292;18.598;2024-01-25T12:50:23;3.46;87.36
70271;SHT31;57680;54.292;18.598;2024-01-25T12:52:48;3.40;86.77
70271;SHT31;57680;54.292;18.598;2024-01-25T12:55:13;3.36;86.94
70271;SHT31;57680;54.292;18.598;2024-01-25T12:57:39;3.34;86.76
70271;SHT31;57680;54.292;18.598;2024-01-25T13:00:05;3.34;87.08
70271;SHT31;57680;54.292;18.598;2024-01-25T13:02:31;3.29;87.20
70271;SHT31;57680;54.292;18.598;2024-01-25T13:04:56;3.27;87.32
70271;SHT31;57680;54.292;18.598;2024-01-25T13:07:21;3.26;87.57
70271;SHT31;57680;54.292;18.598;2024-01-25T13:09:47;3.32;87.84
70271;SHT31;57680;54.292;18.598;2024-01-25T13:12:12;3.30;87.68
70271;SHT31;57680;54.292;18.598;2024-01-25T13:14:37;3.34;87.75
70271;SHT31;57680;54.292;18.598;2024-01-25T13:17:03;3.33;86.64
70271;SHT31;57680;54.292;18.598;2024-01-25T13:19:28;3.33;87.03
70271;SHT31;57680;54.292;18.598;2024-01-25T13:21:53;3.33;87.44
70271;SHT31;57680;54.292;18.598;2024-01-25T13:24:19;3.32;87.08
70271;SHT31;57680;54.292;18.598;2024-01-25T13:26:44;3.32;87.08
70271;SHT31;57680;54.292;18.598;2024-01-25T13:29:09;3.27;86.52
70271;SHT31;57680;54.292;18.598;2024-01-25T13:31:34;3.23;85.96
70271;SHT31;57680;54.292;18.598;2024-01-25T13:34:00;3.18;86.18
70271;SHT31;57680;54.292;18.598;2024-01-25T13:36:25;3.26;86.15
70271;SHT31;57680;54.292;18.598;2024-01-25T13:38:50;3.27;86.29
70271;SHT31;57680;54.292;18.598;2024-01-25T13:41:15;3.27;86.39
70271;SHT31;57680;54.292;18.598;2024-01-25T13:43:41;3.15;87.21
70271;SHT31;57680;54.292;18.598;2024-01-25T13:46:06;3.08;88.39
70271;SHT31;57680;54.292;18.598;2024-01-25T13:48:31;2.98;89.34
70271;SHT31;57680;54.292;18.598;2024-01-25T13:50:57;2.95;89.75
70271;SHT31;57680;54.292;18.598;2024-01-25T13:53:22;2.80;90.82
70271;SHT31;57680;54.292;18.598;2024-01-25T13:55:47;2.72;91.60
70271;SHT31;57680;54.292;18.598;2024-01-25T13:58:13;2.68;91.91
70271;SHT31;57680;54.292;18.598;2024-01-25T14:00:39;2.62;91.79
70271;SHT31;57680;54.292;18.598;2024-01-25T14:03:05;2.51;92.52
70271;SHT31;57680;54.292;18.598;2024-01-25T14:05:30;2.41;92.16
70271;SHT31;57680;54.292;18.598;2024-01-25T14:07:55;2.44;91.23
70271;SHT31;57680;54.292;18.598;2024-01-25T14:10:21;2.44;90.98
70271;SHT31;57680;54.292;18.598;2024-01-25T14:12:46;2.47;91.04
70271;SHT31;57680;54.292;18.598;2024-01-25T14:15:11;2.50;90.86
70271;SHT31;57680;54.292;18.598;2024-01-25T14:17:37;2.40;91.17
70271;SHT31;57680;54.292;18.598;2024-01-25T14:20:03;2.26;92.08
70271;SHT31;57680;54.292;18.598;2024-01-25T14:22:28;2.21;92.79
70271;SHT31;57680;54.292;18.598;2024-01-25T14:24:53;2.10;93.06
70271;SHT31;57680;54.292;18.598;2024-01-25T14:27:19;2.03;92.98
70271;SHT31;57680;54.292;18.598;2024-01-25T14:29:45;2.00;93.26
70271;SHT31;57680;54.292;18.598;2024-01-25T14:32:10;2.00;93.40
70271;SHT31;57680;54.292;18.598;2024-01-25T14:34:35;2.00;93.39
70271;SHT31;57680;54.292;18.598;2024-01-25T14:37:01;2.00;93.35
70271;SHT31;57680;54.292;18.598;2024-01-25T14:39:27;2.03;93.31
70271;SHT31;57680;54.292;18.598;2024-01-25T14:41:53;2.02;93.75
70271;SHT31;57680;54.292;18.598;2024-01-25T14:44:18;1.99;94.08
70271;SHT31;57680;54.292;18.598;2024-01-25T14:46:43;1.95;94.61
70271;SHT31;57680;54.292;18.598;2024-01-25T14:49:09;1.93;95.05
70271;SHT31;57680;54.292;18.598;2024-01-25T14:51:34;1.92;95.49
70271;SHT31;57680;54.292;18.598;2024-01-25T14:53:59;1.90;95.79
70271;SHT31;57680;54.292;18.598;2024-01-25T14:56:24;1.89;96.05
70271;SHT31;57680;54.292;18.598;2024-01-25T14:58:50;1.87;95.95
70271;SHT31;57680;54.292;18.598;2024-01-25T15:01:16;1.89;96.39
70271;SHT31;57680;54.292;18.598;2024-01-25T15:03:41;1.85;96.35
70271;SHT31;57680;54.292;18.598;2024-01-25T15:06:07;1.82;96.42
70271;SHT31;57680;54.292;18.598;2024-01-25T15:08:32;1.73;96.33
70271;SHT31;57680;54.292;18.598;2024-01-25T15:10:57;1.72;96.56
70271;SHT31;57680;54.292;18.598;2024-01-25T15:13:22;1.66;96.35
70271;SHT31;57680;54.292;18.598;2024-01-25T15:15:49;1.62;96.64
70271;SHT31;57680;54.292;18.598;2024-01-25T15:18:14;1.58;96.83
70271;SHT31;57680;54.292;18.598;2024-01-25T15:20:40;1.56;96.93